Aérodrome :
LOGIN :

S'inscrire | Disclaimer

   EN    FR    IT 

 










Légende :    VFR   VFR Marginal   IFR   IFR Intensif   IFR Très Intensif
Visi : 
Plafond : 
>= 8 km
>= 3000ft
5 à 8 km
1000 à 3000 ft
1500m à 5 km
500 à 1000 ft
800 à 1500m
200 à 500 ft
< 800m
< 200 ft
Symboles :   Orages  Brouillard  Fortes neiges  Fortes précipitations  Vent > 20 kt
SIGMETs :   Divers  Orages  Givrage  Turbulence  Onde Orograph.  Cendres Volcan.






- Altitude de l'aérodrome : 681 ft
- Code IATA : LBA


EGNM - Leeds Bradford

DERNIER METAR :
  • 221450Z 13009KT 9999 SCT005 SCT010 06/05 Q0995

METARs EXPIRÉS :
  • 221420Z 13008KT 9000 SCT004 SCT009 06/06 Q0995
  • 221350Z 12007KT 9000 SCT003 BKN007 06/05 Q0995
  • 221320Z 13007KT 9000 SCT003 BKN008 06/06 Q0995
  • 221250Z 14007KT 110V170 8000 SCT003 BKN008 06/06 Q0995

TAF AMD TAF EGNM
Valide du 22 à 14h jusqu'au 23 à 12h UTC


221432Z 2214/2312 13008KT 9999 SCT003 BKN015
TEMPO 2214/2302 9000 -RA BKN008
PROB40
TEMPO 2216/2220 4000 RA BKN004
BECMG 2300/2303 07010KT BKN010
BECMG 2302/2305 6000 -RADZ BKN005
TEMPO 2302/2312 1400 RADZ BR BKN002
ATIS : +44 113 250 9696 (x2489)



MET'MAP, la Météo Aéronautique d'un coup d'oeil ! - Copyright ORBIFLY Décembre 2007 - Disclaimer

ORBIFLY MET'MAP TEAM :

Programmation & Développement : Alexandra Zaïnal
Conception & Développement : Baudouin d'Aumeries
Co-Programmation & Développement : Marc-Olivier Méhu
Soutien technique & logistique : Manuel Goepfert

Contact : metmap@orbifly.com




SOURCES & CREDITS :

   NOAA